createdAt,value
2024-03-10T00:01:53.590Z,3.89
2024-03-10T00:04:19.355Z,3.90
2024-03-10T00:06:46.621Z,3.99
2024-03-10T00:09:12.962Z,4.04
2024-03-10T00:11:38.771Z,3.90
2024-03-10T00:14:06.380Z,3.79
2024-03-10T00:16:32.405Z,3.89
2024-03-10T00:18:59.386Z,3.86
2024-03-10T00:21:25.077Z,3.67
2024-03-10T00:23:50.829Z,3.75
2024-03-10T00:26:16.576Z,3.72
2024-03-10T00:28:42.384Z,3.67
2024-03-10T00:31:10.264Z,3.65
2024-03-10T00:33:38.324Z,3.60
2024-03-10T00:36:07.360Z,3.56
2024-03-10T00:38:33.640Z,3.54
2024-03-10T00:40:59.366Z,3.54
2024-03-10T00:43:25.067Z,3.57
2024-03-10T00:45:53.623Z,3.55
2024-03-10T00:48:19.867Z,3.62
2024-03-10T00:50:48.008Z,3.51
2024-03-10T00:53:16.774Z,3.49
2024-03-10T00:55:46.014Z,3.55
2024-03-10T00:58:11.956Z,3.54
2024-03-10T01:00:39.080Z,3.53
2024-03-10T01:03:07.987Z,3.45
2024-03-10T01:05:36.836Z,3.49
2024-03-10T01:08:02.852Z,3.45
2024-03-10T01:10:28.956Z,3.36
2024-03-10T01:12:55.808Z,3.41
2024-03-10T01:15:22.915Z,3.51
2024-03-10T01:17:48.978Z,3.30
2024-03-10T01:20:14.904Z,3.31
2024-03-10T01:22:43.701Z,3.37
2024-03-10T01:25:10.056Z,3.40
2024-03-10T01:27:37.638Z,3.32
2024-03-10T01:30:04.512Z,3.23
2024-03-10T01:32:31.145Z,3.22
2024-03-10T01:34:57.271Z,3.18
2024-03-10T01:37:23.109Z,3.15
2024-03-10T01:39:48.965Z,3.11
2024-03-10T01:42:14.945Z,3.09
2024-03-10T01:44:40.664Z,3.08
2024-03-10T01:47:06.637Z,3.15
2024-03-10T01:49:35.293Z,3.16
2024-03-10T01:52:02.954Z,3.13
2024-03-10T01:54:33.141Z,3.25
2024-03-10T01:56:59.821Z,3.28
2024-03-10T01:59:26.908Z,3.33
2024-03-10T02:01:54.530Z,3.36
2024-03-10T02:04:21.372Z,3.28
2024-03-10T02:06:47.365Z,3.35
2024-03-10T02:09:17.606Z,3.33
2024-03-10T02:11:44.646Z,3.37
2024-03-10T02:14:10.428Z,3.40
2024-03-10T02:16:36.140Z,3.40
2024-03-10T02:19:02.295Z,3.38
2024-03-10T02:21:28.934Z,3.33
2024-03-10T02:24:17.650Z,3.36
2024-03-10T02:26:47.590Z,3.39
2024-03-10T02:29:19.930Z,3.37
2024-03-10T02:32:05.229Z,3.42
2024-03-10T02:34:53.495Z,3.43
2024-03-10T02:37:38.664Z,3.46
2024-03-10T02:40:23.700Z,3.37
2024-03-10T02:43:08.259Z,3.32
2024-03-10T02:45:52.790Z,3.27
2024-03-10T02:48:18.673Z,3.31
2024-03-10T02:50:45.727Z,3.41
2024-03-10T02:53:11.725Z,3.50
2024-03-10T02:55:38.165Z,3.37
2024-03-10T02:58:07.731Z,3.35
2024-03-10T03:00:37.293Z,3.32
2024-03-10T03:03:04.928Z,3.34
2024-03-10T03:05:31.830Z,3.32
2024-03-10T03:07:58.799Z,3.31
2024-03-10T03:10:25.733Z,3.34
2024-03-10T03:12:53.213Z,3.31
2024-03-10T03:15:19.041Z,3.36
2024-03-10T03:17:44.934Z,3.40
2024-03-10T03:20:17.180Z,3.36
2024-03-10T03:22:50.655Z,3.38
2024-03-10T03:25:18.883Z,3.29
2024-03-10T03:27:54.473Z,3.18
2024-03-10T03:30:20.358Z,3.11
2024-03-10T03:32:46.178Z,3.20
2024-03-10T03:35:12.321Z,3.25
2024-03-10T03:37:38.154Z,3.20
2024-03-10T03:40:08.677Z,3.13
2024-03-10T03:42:37.581Z,3.02
2024-03-10T03:45:07.102Z,3.11
2024-03-10T03:47:33.593Z,3.13
2024-03-10T03:49:59.424Z,3.11
2024-03-10T03:52:25.317Z,3.05
2024-03-10T03:54:52.406Z,3.00
2024-03-10T03:57:22.109Z,3.06
2024-03-10T03:59:48.195Z,3.03
2024-03-10T04:02:14.152Z,3.08
2024-03-10T04:04:41.336Z,3.02
2024-03-10T04:07:07.232Z,3.01
2024-03-10T04:09:33.150Z,3.05
2024-03-10T04:11:59.385Z,3.03
2024-03-10T04:14:25.622Z,2.94
2024-03-10T04:16:54.540Z,2.97
2024-03-10T04:19:21.672Z,2.96
2024-03-10T04:21:48.436Z,2.87
2024-03-10T04:24:14.240Z,2.90
2024-03-10T04:26:43.644Z,2.90
2024-03-10T04:29:10.918Z,2.89
2024-03-10T04:31:37.233Z,2.97
2024-03-10T04:34:02.979Z,3.01
2024-03-10T04:36:31.285Z,2.99
2024-03-10T04:38:57.260Z,3.12
2024-03-10T04:41:23.721Z,3.04
2024-03-10T04:43:49.659Z,2.95
2024-03-10T04:46:15.503Z,3.09
2024-03-10T04:48:41.794Z,3.04
2024-03-10T04:51:08.014Z,3.07
2024-03-10T04:53:33.904Z,3.07
2024-03-10T04:55:59.667Z,3.16
2024-03-10T04:58:25.471Z,3.12
2024-03-10T05:00:51.266Z,3.12
2024-03-10T05:03:16.996Z,3.17
2024-03-10T05:05:42.900Z,3.35
2024-03-10T05:08:11.678Z,3.43
2024-03-10T05:10:37.445Z,3.49
2024-03-10T05:13:03.214Z,3.50
2024-03-10T05:15:28.937Z,3.52
2024-03-10T05:17:54.688Z,3.53
2024-03-10T05:20:23.083Z,3.62
2024-03-10T05:22:49.052Z,3.73
2024-03-10T05:25:14.994Z,3.81
2024-03-10T05:27:42.847Z,4.06
2024-03-10T05:30:09.775Z,4.13
2024-03-10T05:32:37.142Z,4.17
2024-03-10T05:35:06.596Z,4.26
2024-03-10T05:37:36.253Z,4.32
2024-03-10T05:40:01.933Z,4.35
2024-03-10T05:42:27.693Z,4.42
2024-03-10T05:44:54.209Z,4.53
2024-03-10T05:47:19.940Z,4.60
2024-03-10T05:49:46.209Z,4.70
2024-03-10T05:52:12.377Z,4.83
2024-03-10T05:54:40.352Z,4.92
2024-03-10T05:57:06.316Z,5.04
2024-03-10T05:59:32.414Z,5.11
2024-03-10T06:01:58.089Z,5.26
2024-03-10T06:04:23.895Z,5.33
2024-03-10T06:06:50.371Z,5.44
2024-03-10T06:09:16.423Z,5.53
2024-03-10T06:11:42.698Z,5.62
2024-03-10T06:14:08.562Z,5.77
2024-03-10T06:16:34.920Z,5.96
2024-03-10T06:19:00.632Z,6.17
2024-03-10T06:21:47.145Z,6.36
2024-03-10T06:24:31.859Z,6.55
2024-03-10T06:26:57.917Z,6.75
2024-03-10T06:29:25.447Z,6.80
2024-03-10T06:31:52.490Z,6.84
2024-03-10T06:34:23.541Z,6.92
2024-03-10T06:36:49.498Z,7.11
2024-03-10T06:39:20.549Z,7.38
2024-03-10T06:41:48.215Z,7.55
2024-03-10T06:44:16.494Z,7.85
2024-03-10T06:46:45.358Z,7.92
2024-03-10T06:49:11.155Z,8.19
2024-03-10T06:51:37.030Z,8.32
2024-03-10T06:54:05.160Z,8.47
2024-03-10T06:56:31.116Z,8.60
2024-03-10T06:58:57.641Z,8.78
2024-03-10T07:01:23.751Z,8.86
2024-03-10T07:03:53.935Z,9.11
2024-03-10T07:06:22.928Z,9.49
2024-03-10T07:08:52.060Z,9.80
2024-03-10T07:11:17.994Z,9.94
2024-03-10T07:13:43.982Z,9.91
2024-03-10T07:16:09.759Z,10.10
2024-03-10T07:18:36.449Z,10.57
2024-03-10T07:21:02.171Z,10.56
2024-03-10T07:23:28.008Z,10.76
2024-03-10T07:25:53.923Z,10.71
2024-03-10T07:28:19.656Z,10.62
2024-03-10T07:30:45.382Z,10.76
2024-03-10T07:33:11.158Z,11.20
2024-03-10T07:35:37.244Z,11.24
2024-03-10T07:38:03.023Z,11.13
2024-03-10T07:40:28.987Z,10.94
2024-03-10T07:42:54.964Z,11.45
2024-03-10T07:45:20.861Z,11.81
2024-03-10T07:47:48.566Z,12.27
2024-03-10T07:50:19.666Z,12.90
2024-03-10T07:52:47.850Z,12.89
2024-03-10T07:55:13.951Z,13.42
2024-03-10T07:57:41.261Z,13.33
2024-03-10T08:00:23.111Z,13.16
2024-03-10T08:02:49.526Z,13.22
2024-03-10T08:05:15.396Z,13.92
2024-03-10T08:07:43.588Z,13.90
2024-03-10T08:10:14.073Z,14.16
2024-03-10T08:12:41.067Z,14.30
2024-03-10T08:15:07.897Z,14.41
2024-03-10T08:17:34.170Z,14.69
2024-03-10T08:20:00.056Z,14.94
2024-03-10T08:22:27.138Z,14.88
2024-03-10T08:24:56.104Z,15.28
2024-03-10T08:27:23.321Z,14.84
2024-03-10T08:29:50.187Z,15.34
2024-03-10T08:32:16.076Z,14.75
2024-03-10T08:34:44.046Z,14.39
2024-03-10T08:37:10.034Z,14.46
2024-03-10T08:39:35.746Z,14.89
2024-03-10T08:42:01.510Z,14.82
2024-03-10T08:44:27.378Z,14.33
2024-03-10T08:46:53.487Z,14.58
2024-03-10T08:49:19.285Z,14.39
2024-03-10T08:51:45.019Z,13.89
2024-03-10T08:54:11.119Z,14.35
2024-03-10T08:56:39.742Z,14.91
2024-03-10T08:59:05.616Z,15.07
2024-03-10T09:01:32.939Z,15.31
2024-03-10T09:04:03.843Z,15.57
2024-03-10T09:06:30.813Z,16.07
2024-03-10T09:08:56.489Z,15.80
2024-03-10T09:11:25.359Z,15.61
2024-03-10T09:13:52.294Z,16.07
2024-03-10T09:16:18.964Z,16.64
2024-03-10T09:18:45.374Z,16.95
2024-03-10T09:21:11.185Z,17.25
2024-03-10T09:23:38.814Z,17.48
2024-03-10T09:26:04.828Z,17.79
2024-03-10T09:28:30.792Z,18.05
2024-03-10T09:30:59.191Z,17.97
2024-03-10T09:33:28.420Z,17.57
2024-03-10T09:35:56.929Z,17.77
2024-03-10T09:38:22.730Z,17.56
2024-03-10T09:40:49.993Z,17.68
2024-03-10T09:43:17.121Z,17.23
2024-03-10T09:45:50.141Z,17.07
2024-03-10T09:48:16.421Z,17.03
2024-03-10T09:50:49.094Z,17.00
2024-03-10T09:53:14.902Z,17.21
2024-03-10T09:55:40.904Z,17.74
2024-03-10T09:58:23.527Z,17.64
2024-03-10T10:00:55.792Z,17.77
2024-03-10T10:03:23.161Z,18.06
2024-03-10T10:05:56.137Z,18.32
2024-03-10T10:08:24.470Z,18.08
2024-03-10T10:10:51.524Z,18.84
2024-03-10T10:13:23.921Z,18.41
2024-03-10T10:15:49.836Z,17.94
2024-03-10T10:18:17.369Z,18.31
2024-03-10T10:20:47.425Z,18.27
2024-03-10T10:23:15.517Z,18.25
2024-03-10T10:25:43.899Z,19.25
2024-03-10T10:28:14.444Z,19.08
2024-03-10T10:30:41.549Z,19.09
2024-03-10T10:33:09.647Z,19.18
2024-03-10T10:35:40.840Z,18.75
2024-03-10T10:38:14.832Z,18.89
2024-03-10T10:40:59.700Z,18.92
2024-03-10T10:43:27.776Z,18.58
2024-03-10T10:45:53.471Z,18.08
2024-03-10T10:48:20.435Z,18.56
2024-03-10T10:50:49.309Z,18.89
2024-03-10T10:53:18.972Z,18.85
2024-03-10T10:55:46.730Z,18.68
2024-03-10T10:58:17.752Z,19.14
2024-03-10T11:00:52.385Z,18.90
2024-03-10T11:03:24.094Z,18.87
2024-03-10T11:06:08.072Z,18.77
2024-03-10T11:08:38.306Z,19.29
2024-03-10T11:11:05.246Z,18.78
2024-03-10T11:13:31.301Z,19.17
2024-03-10T11:16:13.280Z,19.10
2024-03-10T11:18:40.995Z,18.75
2024-03-10T11:21:08.640Z,17.64
2024-03-10T11:23:41.769Z,18.05
2024-03-10T11:26:09.650Z,17.68
2024-03-10T11:28:51.750Z,18.34
2024-03-10T11:31:20.781Z,18.04
2024-03-10T11:33:50.750Z,17.92
2024-03-10T11:36:17.308Z,17.50
2024-03-10T11:38:43.993Z,16.47
2024-03-10T11:41:10.478Z,17.09
2024-03-10T11:43:37.429Z,17.34
2024-03-10T11:46:16.167Z,16.36
2024-03-10T11:48:41.984Z,16.61
2024-03-10T11:51:10.554Z,16.85
2024-03-10T11:53:36.636Z,16.69
2024-03-10T11:56:04.926Z,16.84
2024-03-10T11:58:30.861Z,16.95
2024-03-10T12:00:56.822Z,16.90
2024-03-10T12:03:22.805Z,17.21
2024-03-10T12:05:49.389Z,17.74
2024-03-10T12:08:15.190Z,17.79
2024-03-10T12:10:40.977Z,17.44
2024-03-10T12:13:07.707Z,17.55
2024-03-10T12:15:34.637Z,16.92
2024-03-10T12:18:05.787Z,16.50
2024-03-10T12:20:31.902Z,16.28
2024-03-10T12:22:59.615Z,16.33
2024-03-10T12:25:25.461Z,16.77
2024-03-10T12:27:51.391Z,17.28
2024-03-10T12:30:18.277Z,17.96
2024-03-10T12:32:54.031Z,18.09
2024-03-10T12:35:20.966Z,17.92
2024-03-10T12:37:47.799Z,17.58
2024-03-10T12:40:16.504Z,17.62
2024-03-10T12:42:50.618Z,17.73
2024-03-10T12:45:19.453Z,17.91
2024-03-10T12:47:51.989Z,17.90
2024-03-10T12:50:18.403Z,17.77
2024-03-10T12:52:44.299Z,17.79
2024-03-10T12:55:10.955Z,17.50
2024-03-10T12:57:37.870Z,17.54
2024-03-10T13:00:28.945Z,17.84
2024-03-10T13:02:58.994Z,17.45
2024-03-10T13:05:25.797Z,17.81
2024-03-10T13:07:51.877Z,17.59
2024-03-10T13:10:17.996Z,17.74
2024-03-10T13:12:44.505Z,17.39
2024-03-10T13:15:11.993Z,17.11
2024-03-10T13:17:39.728Z,17.01
2024-03-10T13:20:17.652Z,16.64
2024-03-10T13:22:45.042Z,16.51
2024-03-10T13:25:12.405Z,16.52
2024-03-10T13:27:42.573Z,16.65
2024-03-10T13:30:10.691Z,16.90
2024-03-10T13:32:37.656Z,17.05
2024-03-10T13:35:04.679Z,16.55
2024-03-10T13:37:35.943Z,16.44
2024-03-10T13:40:12.342Z,16.53
2024-03-10T13:42:42.588Z,16.20
2024-03-10T13:45:14.797Z,16.19
2024-03-10T13:47:45.917Z,15.77
2024-03-10T13:50:14.638Z,16.22
2024-03-10T13:52:43.969Z,16.09
2024-03-10T13:55:12.932Z,15.96
2024-03-10T13:57:40.498Z,15.99
2024-03-10T14:00:14.801Z,15.66
2024-03-10T14:02:44.210Z,15.39
2024-03-10T14:05:16.514Z,15.68
2024-03-10T14:07:46.468Z,15.89
2024-03-10T14:10:12.775Z,15.50
2024-03-10T14:12:39.799Z,15.38
2024-03-10T14:15:10.651Z,15.11
2024-03-10T14:17:40.029Z,14.90
2024-03-10T14:20:08.140Z,15.03
2024-03-10T14:22:34.869Z,15.75
2024-03-10T14:25:00.875Z,15.77
2024-03-10T14:27:26.570Z,15.13
2024-03-10T14:29:52.390Z,15.30
2024-03-10T14:32:19.058Z,15.14
2024-03-10T14:34:44.842Z,14.97
2024-03-10T14:37:10.572Z,14.60
2024-03-10T14:39:36.503Z,14.43
2024-03-10T14:42:02.820Z,14.34
2024-03-10T14:44:28.728Z,14.43
2024-03-10T14:46:54.624Z,14.60
2024-03-10T14:49:20.543Z,14.47
2024-03-10T14:51:46.242Z,14.14
2024-03-10T14:54:12.372Z,13.95
2024-03-10T14:56:39.789Z,13.63
2024-03-10T14:59:07.704Z,13.62
2024-03-10T15:01:34.429Z,13.55
2024-03-10T15:04:00.902Z,13.76
2024-03-10T15:06:27.108Z,13.76
2024-03-10T15:08:55.327Z,13.28
2024-03-10T15:11:21.582Z,12.82
2024-03-10T15:13:48.466Z,12.61
2024-03-10T15:16:15.028Z,12.42
2024-03-10T15:18:43.036Z,12.25
2024-03-10T15:21:08.883Z,11.79
2024-03-10T15:23:34.617Z,11.76
2024-03-10T15:26:04.877Z,11.39
2024-03-10T15:28:30.842Z,11.07
2024-03-10T15:30:58.431Z,11.13
2024-03-10T15:33:24.387Z,11.04
2024-03-10T15:35:50.821Z,10.83
2024-03-10T15:38:16.726Z,10.74
2024-03-10T15:40:42.728Z,10.76
2024-03-10T15:43:10.787Z,10.87
2024-03-10T15:45:40.764Z,10.67
2024-03-10T15:48:07.688Z,10.64
2024-03-10T15:50:33.801Z,10.47
2024-03-10T15:53:05.091Z,10.26
2024-03-10T15:55:33.944Z,10.13
2024-03-10T15:57:59.696Z,10.30
2024-03-10T16:00:26.997Z,10.19
2024-03-10T16:02:57.028Z,10.22
2024-03-10T16:05:41.412Z,10.04
2024-03-10T16:08:07.950Z,9.91
2024-03-10T16:10:39.787Z,9.89
2024-03-10T16:13:07.330Z,9.65
2024-03-10T16:15:37.601Z,9.57
2024-03-10T16:18:07.390Z,9.54
2024-03-10T16:20:34.474Z,9.42
2024-03-10T16:23:00.418Z,9.46
2024-03-10T16:25:26.241Z,9.29
2024-03-10T16:27:53.173Z,9.42
2024-03-10T16:30:19.578Z,9.35
2024-03-10T16:32:46.899Z,9.17
2024-03-10T16:35:13.728Z,8.88
2024-03-10T16:37:41.902Z,8.96
2024-03-10T16:40:14.195Z,8.89
2024-03-10T16:42:44.596Z,8.98
2024-03-10T16:45:17.654Z,8.96
2024-03-10T16:47:46.323Z,8.88
2024-03-10T16:50:13.089Z,8.86
2024-03-10T16:52:39.533Z,9.01
2024-03-10T16:55:08.617Z,8.94
2024-03-10T16:57:37.108Z,8.91
2024-03-10T17:00:05.502Z,8.89
2024-03-10T17:02:31.946Z,8.90
2024-03-10T17:04:58.480Z,8.84
2024-03-10T17:07:24.364Z,8.82
2024-03-10T17:09:50.076Z,8.71
2024-03-10T17:12:15.994Z,8.76
2024-03-10T17:14:41.958Z,8.84
2024-03-10T17:17:07.804Z,8.84
2024-03-10T17:19:33.592Z,8.80
2024-03-10T17:21:59.520Z,8.60
2024-03-10T17:24:26.260Z,8.63
2024-03-10T17:26:53.473Z,8.62
2024-03-10T17:29:19.390Z,8.58
2024-03-10T17:31:45.147Z,8.59
2024-03-10T17:34:14.049Z,8.54
2024-03-10T17:36:42.666Z,8.54
2024-03-10T17:39:11.460Z,8.47
2024-03-10T17:41:38.326Z,8.56
2024-03-10T17:44:05.141Z,8.39
2024-03-10T17:46:34.127Z,8.28
2024-03-10T17:49:01.052Z,8.35
2024-03-10T17:51:30.619Z,8.37
2024-03-10T17:53:57.570Z,8.40
2024-03-10T17:56:25.001Z,8.46
2024-03-10T17:58:51.794Z,8.38
2024-03-10T18:01:20.873Z,8.43
2024-03-10T18:03:52.545Z,8.23
2024-03-10T18:06:18.960Z,8.31
2024-03-10T18:08:45.108Z,8.34
2024-03-10T18:11:14.520Z,8.28
2024-03-10T18:13:41.624Z,8.18
2024-03-10T18:16:08.603Z,8.19
2024-03-10T18:18:34.862Z,8.24
2024-03-10T18:21:01.255Z,8.27
2024-03-10T18:23:27.043Z,8.18
2024-03-10T18:25:55.436Z,8.12
2024-03-10T18:28:21.516Z,8.16
2024-03-10T18:30:47.894Z,8.17
2024-03-10T18:33:15.428Z,8.18
2024-03-10T18:35:41.468Z,8.15
2024-03-10T18:38:07.412Z,8.12
2024-03-10T18:40:33.309Z,8.13
2024-03-10T18:42:59.613Z,8.19
2024-03-10T18:45:29.082Z,8.21
2024-03-10T18:47:56.125Z,8.14
2024-03-10T18:50:22.941Z,8.17
2024-03-10T18:52:50.662Z,8.19
2024-03-10T18:55:16.413Z,8.00
2024-03-10T18:57:42.393Z,8.09
2024-03-10T19:00:09.075Z,8.07
2024-03-10T19:02:34.907Z,8.06
2024-03-10T19:05:00.919Z,8.05
2024-03-10T19:07:26.824Z,8.03
2024-03-10T19:09:53.154Z,8.08
2024-03-10T19:12:20.276Z,8.12
2024-03-10T19:14:47.816Z,8.14
2024-03-10T19:17:14.056Z,8.13
2024-03-10T19:19:39.959Z,8.14
2024-03-10T19:22:05.770Z,8.14
2024-03-10T19:24:31.676Z,8.07
2024-03-10T19:26:57.996Z,8.11
2024-03-10T19:29:23.800Z,8.05
2024-03-10T19:31:53.331Z,8.11
2024-03-10T19:34:20.435Z,8.05
2024-03-10T19:36:46.261Z,8.09
2024-03-10T19:39:12.164Z,8.09
2024-03-10T19:41:38.059Z,8.04
2024-03-10T19:44:06.189Z,7.89
2024-03-10T19:46:32.363Z,7.84
2024-03-10T19:48:58.146Z,7.94
2024-03-10T19:51:24.022Z,8.00
2024-03-10T19:53:49.739Z,7.97
2024-03-10T19:56:17.679Z,7.88
2024-03-10T19:58:43.618Z,7.93
2024-03-10T20:01:09.981Z,7.91
2024-03-10T20:03:35.836Z,7.93
2024-03-10T20:06:01.746Z,7.90
2024-03-10T20:08:27.498Z,7.88
2024-03-10T20:10:53.413Z,7.92
2024-03-10T20:13:19.211Z,7.86
2024-03-10T20:15:45.004Z,7.90
2024-03-10T20:18:14.666Z,7.83
2024-03-10T20:20:42.368Z,7.87
2024-03-10T20:23:09.851Z,7.84
2024-03-10T20:25:36.952Z,7.83
2024-03-10T20:28:03.987Z,7.83
2024-03-10T20:30:31.473Z,7.77
2024-03-10T20:32:57.910Z,7.82
2024-03-10T20:35:23.809Z,7.87
2024-03-10T20:37:49.729Z,7.92
2024-03-10T20:40:16.805Z,7.94
2024-03-10T20:42:42.976Z,7.92
2024-03-10T20:45:12.998Z,7.88
2024-03-10T20:47:41.417Z,7.80
2024-03-10T20:50:11.003Z,7.82
2024-03-10T20:52:36.916Z,7.84
2024-03-10T20:55:03.422Z,7.83
2024-03-10T20:57:29.576Z,7.77
2024-03-10T20:59:55.488Z,7.74
2024-03-10T21:02:21.564Z,7.77
2024-03-10T21:04:47.322Z,7.82
2024-03-10T21:07:13.535Z,7.74
2024-03-10T21:09:40.578Z,7.76
2024-03-10T21:12:08.708Z,7.75
2024-03-10T21:14:35.081Z,7.72
2024-03-10T21:17:01.206Z,7.79
2024-03-10T21:19:27.572Z,7.72
2024-03-10T21:21:54.219Z,7.67
2024-03-10T21:24:20.368Z,7.68
2024-03-10T21:26:49.392Z,7.72
2024-03-10T21:29:15.746Z,7.69
2024-03-10T21:31:41.635Z,7.68
2024-03-10T21:34:10.569Z,7.66
2024-03-10T21:36:36.810Z,7.57
2024-03-10T21:39:03.825Z,7.60
2024-03-10T21:41:30.662Z,7.51
2024-03-10T21:43:56.809Z,7.50
2024-03-10T21:46:22.935Z,7.56
2024-03-10T21:48:48.794Z,7.62
2024-03-10T21:51:14.602Z,7.56
2024-03-10T21:53:40.608Z,7.56
2024-03-10T21:56:07.064Z,7.59
2024-03-10T21:58:33.331Z,7.60
2024-03-10T22:01:01.022Z,7.59
2024-03-10T22:03:27.717Z,7.51
2024-03-10T22:05:54.169Z,7.51
2024-03-10T22:08:19.983Z,7.56
2024-03-10T22:10:45.766Z,7.54
2024-03-10T22:13:11.657Z,7.66
2024-03-10T22:15:37.369Z,7.59
2024-03-10T22:18:03.316Z,7.65
2024-03-10T22:20:30.321Z,7.69
2024-03-10T22:22:56.991Z,7.70
2024-03-10T22:25:26.768Z,7.67
2024-03-10T22:27:53.183Z,7.72
2024-03-10T22:30:26.754Z,7.72
2024-03-10T22:32:53.031Z,7.77
2024-03-10T22:35:19.905Z,7.74
2024-03-10T22:37:48.290Z,7.75
2024-03-10T22:40:17.497Z,7.78
2024-03-10T22:42:45.036Z,7.82
2024-03-10T22:45:23.691Z,7.86
2024-03-10T22:47:54.766Z,7.82
2024-03-10T22:50:20.878Z,7.89
2024-03-10T22:52:48.411Z,7.82
2024-03-10T22:55:16.533Z,7.82
2024-03-10T22:57:43.360Z,7.88
2024-03-10T23:00:33.168Z,7.86
2024-03-10T23:03:08.612Z,7.88
2024-03-10T23:05:36.220Z,7.87
2024-03-10T23:08:06.760Z,7.79
2024-03-10T23:10:33.192Z,7.78
2024-03-10T23:12:59.817Z,7.74
2024-03-10T23:15:26.306Z,7.78
2024-03-10T23:17:52.300Z,7.80
2024-03-10T23:20:23.782Z,7.79
2024-03-10T23:22:54.893Z,7.74
2024-03-10T23:25:22.058Z,7.73
2024-03-10T23:27:49.125Z,7.63
2024-03-10T23:30:18.248Z,7.64
2024-03-10T23:32:48.162Z,7.64
2024-03-10T23:35:16.583Z,7.57
2024-03-10T23:37:42.585Z,7.58
2024-03-10T23:40:15.612Z,7.44
2024-03-10T23:42:42.993Z,7.41
2024-03-10T23:45:11.567Z,7.40
2024-03-10T23:47:40.014Z,7.39
2024-03-10T23:50:15.455Z,7.41
2024-03-10T23:52:44.227Z,7.44
2024-03-10T23:55:11.438Z,7.38
2024-03-10T23:57:37.753Z,7.32
